createdAt,value
2022-10-15T00:00:47.179Z,158.91
2022-10-15T00:01:47.372Z,160.12
2022-10-15T00:02:47.371Z,157.86
2022-10-15T00:03:47.473Z,158.31
2022-10-15T00:04:47.508Z,157.71
2022-10-15T00:05:47.572Z,159.66
2022-10-15T00:06:47.672Z,160.12
2022-10-15T00:07:47.743Z,160.12
2022-10-15T00:08:47.846Z,160.73
2022-10-15T00:09:47.900Z,160.73
2022-10-15T00:10:47.981Z,158.46
2022-10-15T00:11:48.056Z,160.27
2022-10-15T00:12:48.241Z,158.91
2022-10-15T00:13:48.222Z,161.81
2022-10-15T00:14:48.290Z,159.51
2022-10-15T00:15:48.361Z,159.51
2022-10-15T00:16:48.452Z,159.97
2022-10-15T00:17:48.536Z,159.81
2022-10-15T00:18:48.619Z,159.97
2022-10-15T00:19:48.695Z,159.51
2022-10-15T00:20:48.763Z,160.12
2022-10-15T00:21:48.890Z,163.23
2022-10-15T00:22:48.946Z,160.58
2022-10-15T00:23:49.011Z,162.13
2022-10-15T00:24:49.086Z,161.81
2022-10-15T00:25:49.182Z,162.28
2022-10-15T00:26:49.238Z,158.76
2022-10-15T00:27:49.317Z,159.06
2022-10-15T00:28:49.462Z,158.91
2022-10-15T00:29:49.466Z,158.91
2022-10-15T00:30:49.539Z,158.91
2022-10-15T00:31:49.611Z,162.60
2022-10-15T00:32:49.700Z,160.58
2022-10-15T00:33:49.749Z,162.13
2022-10-15T00:34:49.845Z,160.12
2022-10-15T00:35:49.916Z,160.73
2022-10-15T00:36:49.995Z,160.12
2022-10-15T00:37:50.104Z,159.06
2022-10-15T00:38:50.144Z,160.73
2022-10-15T00:39:50.300Z,160.27
2022-10-15T00:40:50.431Z,161.04
2022-10-15T00:41:50.377Z,162.44
2022-10-15T00:42:50.466Z,160.88
2022-10-15T00:43:50.523Z,159.81
2022-10-15T00:44:50.635Z,162.44
2022-10-15T00:45:50.671Z,161.04
2022-10-15T00:46:50.746Z,162.60
2022-10-15T00:47:50.854Z,160.27
2022-10-15T00:48:50.964Z,161.19
2022-10-15T00:49:50.972Z,161.97
2022-10-15T00:50:51.077Z,159.97
2022-10-15T00:51:51.124Z,160.58
2022-10-15T00:52:51.213Z,163.39
2022-10-15T00:53:51.281Z,160.58
2022-10-15T00:54:51.359Z,161.35
2022-10-15T00:55:51.435Z,161.04
2022-10-15T00:56:51.520Z,162.44
2022-10-15T00:57:51.597Z,161.66
2022-10-15T00:58:51.676Z,163.07
2022-10-15T00:59:51.784Z,163.07
2022-10-15T01:00:51.893Z,163.86
2022-10-15T01:01:51.907Z,160.73
2022-10-15T01:02:51.983Z,161.66
2022-10-15T01:03:52.061Z,161.66
2022-10-15T01:04:52.161Z,162.91
2022-10-15T01:05:52.209Z,164.02
2022-10-15T01:06:52.316Z,163.07
2022-10-15T01:07:52.368Z,161.50
2022-10-15T01:08:52.492Z,161.97
2022-10-15T01:09:52.533Z,163.86
2022-10-15T01:10:52.622Z,164.18
2022-10-15T01:11:52.888Z,161.97
2022-10-15T01:12:52.784Z,164.83
2022-10-15T01:13:52.860Z,162.13
2022-10-15T01:14:52.935Z,162.13
2022-10-15T01:15:53.015Z,162.44
2022-10-15T01:16:53.127Z,163.70
2022-10-15T01:17:53.175Z,161.81
2022-10-15T01:18:53.258Z,163.54
2022-10-15T01:19:53.320Z,161.81
2022-10-15T01:20:53.403Z,161.19
2022-10-15T01:21:53.491Z,161.81
2022-10-15T01:22:53.570Z,164.67
2022-10-15T01:23:53.655Z,164.18
2022-10-15T01:24:53.721Z,163.86
2022-10-15T01:25:53.791Z,161.50
2022-10-15T01:26:53.878Z,164.99
2022-10-15T01:27:53.952Z,163.70
2022-10-15T01:28:54.064Z,162.60
2022-10-15T01:29:54.093Z,162.13
2022-10-15T01:30:54.179Z,162.60
2022-10-15T01:31:54.263Z,161.66
2022-10-15T01:32:54.337Z,161.35
2022-10-15T01:33:54.438Z,163.39
2022-10-15T01:34:54.512Z,161.19
2022-10-15T01:35:54.589Z,163.70
2022-10-15T01:36:54.685Z,161.04
2022-10-15T01:37:54.759Z,160.58
2022-10-15T01:38:54.837Z,160.88
2022-10-15T01:39:54.891Z,160.42
2022-10-15T01:40:54.968Z,161.97
2022-10-15T01:41:55.067Z,161.35
2022-10-15T01:42:55.145Z,159.51
2022-10-15T01:43:55.220Z,163.07
2022-10-15T01:44:55.329Z,161.19
2022-10-15T01:45:55.370Z,160.58
2022-10-15T01:46:55.479Z,162.28
2022-10-15T01:47:55.518Z,161.50
2022-10-15T01:48:55.593Z,161.19
2022-10-15T01:49:55.676Z,163.39
2022-10-15T01:50:55.757Z,160.42
2022-10-15T01:51:55.851Z,159.81
2022-10-15T01:52:55.931Z,161.19
2022-10-15T01:53:56.000Z,161.35
2022-10-15T01:54:56.076Z,161.66
2022-10-15T01:55:56.152Z,161.19
2022-10-15T01:56:56.241Z,161.81
2022-10-15T01:57:56.314Z,162.60
2022-10-15T01:58:56.400Z,161.50
2022-10-15T01:59:56.467Z,161.81
2022-10-15T02:00:56.620Z,162.60
2022-10-15T02:01:58.085Z,164.51
2022-10-15T02:02:56.718Z,161.50
2022-10-15T02:03:56.795Z,164.35
2022-10-15T02:04:56.869Z,162.28
2022-10-15T02:05:56.945Z,162.28
2022-10-15T02:06:57.033Z,164.51
2022-10-15T02:07:57.110Z,161.66
2022-10-15T02:08:57.199Z,161.81
2022-10-15T02:09:57.273Z,161.97
2022-10-15T02:10:57.380Z,161.66
2022-10-15T02:11:57.455Z,162.44
2022-10-15T02:12:57.507Z,162.44
2022-10-15T02:13:57.583Z,162.60
2022-10-15T02:14:57.671Z,164.67
2022-10-15T02:15:57.750Z,162.44
2022-10-15T02:16:57.839Z,163.23
2022-10-15T02:17:57.908Z,164.67
2022-10-15T02:18:57.997Z,163.23
2022-10-15T02:20:58.145Z,165.48
2022-10-15T02:21:58.238Z,162.13
2022-10-15T02:22:58.311Z,162.91
2022-10-15T02:23:58.385Z,165.31
2022-10-15T02:24:58.466Z,165.15
2022-10-15T02:25:58.547Z,162.44
2022-10-15T02:26:58.646Z,162.44
2022-10-15T02:27:58.728Z,162.75
2022-10-15T02:28:58.889Z,162.60
2022-10-15T02:29:58.880Z,163.07
2022-10-15T02:30:58.952Z,163.86
2022-10-15T02:31:59.029Z,162.75
2022-10-15T02:32:59.104Z,162.44
2022-10-15T02:33:59.190Z,165.31
2022-10-15T02:34:59.268Z,163.23
2022-10-15T02:35:59.350Z,162.44
2022-10-15T02:36:59.426Z,162.75
2022-10-15T02:37:59.517Z,165.31
2022-10-15T02:38:59.577Z,161.81
2022-10-15T02:39:59.662Z,161.81
2022-10-15T02:40:59.758Z,163.54
2022-10-15T02:41:59.827Z,161.50
2022-10-15T02:42:59.911Z,163.54
2022-10-15T02:43:59.997Z,161.50
2022-10-15T02:45:00.100Z,162.13
2022-10-15T02:46:00.160Z,161.50
2022-10-15T02:47:00.238Z,161.97
2022-10-15T02:48:00.311Z,162.13
2022-10-15T02:49:00.387Z,161.66
2022-10-15T02:50:00.496Z,161.81
2022-10-15T02:51:00.583Z,163.23
2022-10-15T02:52:00.635Z,161.97
2022-10-15T02:53:00.713Z,161.04
2022-10-15T02:54:00.803Z,164.35
2022-10-15T02:55:00.891Z,161.97
2022-10-15T02:56:00.999Z,161.81
2022-10-15T02:57:01.038Z,162.91
2022-10-15T02:58:01.150Z,162.13
2022-10-15T02:59:01.203Z,161.97
2022-10-15T03:00:01.265Z,161.81
2022-10-15T03:01:01.426Z,161.04
2022-10-15T03:02:01.430Z,162.91
2022-10-15T03:03:01.503Z,164.99
2022-10-15T03:04:01.592Z,161.97
2022-10-15T03:05:01.708Z,163.70
2022-10-15T03:06:01.771Z,162.60
2022-10-15T03:07:01.851Z,162.28
2022-10-15T03:08:01.908Z,163.07
2022-10-15T03:09:01.998Z,161.97
2022-10-15T03:10:02.058Z,162.44
2022-10-15T03:11:02.167Z,162.28
2022-10-15T03:12:02.214Z,162.75
2022-10-15T03:13:02.287Z,161.97
2022-10-15T03:14:02.371Z,161.50
2022-10-15T03:15:02.480Z,160.88
2022-10-15T03:16:02.578Z,160.73
2022-10-15T03:17:02.620Z,162.91
2022-10-15T03:18:02.708Z,160.73
2022-10-15T03:19:02.760Z,159.97
2022-10-15T03:20:02.834Z,160.12
2022-10-15T03:21:02.934Z,162.28
2022-10-15T03:22:02.986Z,160.58
2022-10-15T03:23:03.055Z,159.81
2022-10-15T03:24:03.145Z,159.36
2022-10-15T03:25:03.238Z,162.60
2022-10-15T03:26:03.332Z,160.73
2022-10-15T03:27:03.399Z,160.27
2022-10-15T03:28:03.481Z,160.27
2022-10-15T03:29:03.577Z,160.73
2022-10-15T03:30:03.630Z,160.58
2022-10-15T03:31:03.737Z,160.42
2022-10-15T03:32:03.798Z,159.51
2022-10-15T03:33:03.879Z,160.27
2022-10-15T03:34:03.959Z,161.50
2022-10-15T03:35:04.057Z,162.60
2022-10-15T03:36:04.127Z,162.91
2022-10-15T03:37:04.214Z,160.12
2022-10-15T03:38:04.290Z,160.42
2022-10-15T03:39:04.343Z,161.81
2022-10-15T03:40:04.405Z,161.66
2022-10-15T03:41:04.520Z,160.42
2022-10-15T03:42:04.603Z,160.27
2022-10-15T03:43:04.689Z,159.81
2022-10-15T03:44:04.739Z,163.23
2022-10-15T03:45:04.831Z,160.12
2022-10-15T03:46:04.937Z,160.12
2022-10-15T03:47:05.010Z,162.13
2022-10-15T03:48:05.091Z,162.13
2022-10-15T03:49:05.180Z,161.04
2022-10-15T03:50:05.271Z,159.81
2022-10-15T03:51:05.346Z,161.04
2022-10-15T03:52:05.411Z,160.73
2022-10-15T03:53:05.479Z,162.28
2022-10-15T03:54:05.557Z,161.04
2022-10-15T03:55:05.637Z,160.73
2022-10-15T03:56:05.748Z,161.81
2022-10-15T03:57:05.829Z,160.42
2022-10-15T03:58:05.874Z,160.73
2022-10-15T03:59:05.961Z,161.04
2022-10-15T04:00:06.802Z,161.66
2022-10-15T04:01:06.157Z,162.75
2022-10-15T04:02:06.186Z,161.97
2022-10-15T04:03:06.285Z,161.19
2022-10-15T04:04:06.345Z,161.35
2022-10-15T04:05:06.432Z,161.50
2022-10-15T04:06:06.498Z,164.02
2022-10-15T04:07:06.567Z,162.13
2022-10-15T04:08:06.648Z,163.70
2022-10-15T04:09:06.731Z,161.50
2022-10-15T04:10:06.841Z,161.50
2022-10-15T04:11:06.891Z,161.81
2022-10-15T04:12:06.965Z,163.86
2022-10-15T04:13:07.064Z,164.83
2022-10-15T04:14:07.124Z,163.23
2022-10-15T04:15:07.324Z,162.60
2022-10-15T04:16:07.289Z,162.28
2022-10-15T04:17:07.376Z,162.13
2022-10-15T04:18:07.486Z,163.54
2022-10-15T04:19:10.283Z,161.81
2022-10-15T04:20:07.621Z,164.99
2022-10-15T04:21:07.699Z,162.75
2022-10-15T04:22:07.770Z,161.35
2022-10-15T04:23:07.861Z,162.75
2022-10-15T04:24:07.931Z,162.91
2022-10-15T04:25:08.022Z,162.91
2022-10-15T04:26:08.108Z,164.99
2022-10-15T04:27:08.292Z,163.07
2022-10-15T04:28:08.276Z,162.75
2022-10-15T04:29:08.340Z,163.23
2022-10-15T04:30:08.446Z,164.83
2022-10-15T04:31:08.522Z,163.07
2022-10-15T04:32:08.601Z,165.15
2022-10-15T04:33:08.655Z,163.07
2022-10-15T04:34:08.740Z,163.70
2022-10-15T04:35:08.813Z,163.07
2022-10-15T04:36:08.929Z,165.48
2022-10-15T04:37:08.971Z,162.44
2022-10-15T04:38:09.068Z,164.51
2022-10-15T04:39:12.191Z,165.97
2022-10-15T04:40:09.231Z,163.70
2022-10-15T04:41:09.313Z,162.28
2022-10-15T04:42:09.398Z,164.67
2022-10-15T04:43:09.478Z,163.70
2022-10-15T04:44:09.551Z,163.07
2022-10-15T04:45:09.794Z,163.54
2022-10-15T04:46:09.729Z,163.54
2022-10-15T04:47:09.815Z,163.70
2022-10-15T04:48:09.928Z,165.64
2022-10-15T04:49:09.997Z,163.07
2022-10-15T04:50:10.076Z,162.91
2022-10-15T04:51:10.146Z,166.62
2022-10-15T04:52:10.201Z,164.18
2022-10-15T04:53:10.326Z,166.46
2022-10-15T04:54:10.356Z,163.39
2022-10-15T04:55:10.449Z,163.23
2022-10-15T04:56:10.525Z,163.23
2022-10-15T04:57:10.604Z,163.23
2022-10-15T04:58:10.692Z,164.35
2022-10-15T04:59:10.777Z,165.64
2022-10-15T05:00:10.859Z,165.80
2022-10-15T05:01:10.942Z,164.02
2022-10-15T05:02:11.099Z,164.02
2022-10-15T05:03:11.078Z,166.29
2022-10-15T05:04:11.163Z,164.02
2022-10-15T05:05:11.266Z,165.48
2022-10-15T05:06:11.323Z,166.13
2022-10-15T05:07:11.409Z,164.67
2022-10-15T05:08:11.496Z,163.39
2022-10-15T05:09:11.545Z,164.02
2022-10-15T05:10:11.639Z,165.97
2022-10-15T05:11:11.724Z,164.02
2022-10-15T05:12:11.813Z,163.70
2022-10-15T05:13:11.891Z,163.54
2022-10-15T05:14:11.973Z,163.23
2022-10-15T05:15:12.060Z,163.86
2022-10-15T05:16:12.138Z,166.46
2022-10-15T05:17:12.218Z,165.80
2022-10-15T05:18:12.294Z,165.48
2022-10-15T05:19:12.375Z,165.80
2022-10-15T05:20:12.472Z,162.91
2022-10-15T05:21:12.522Z,163.54
2022-10-15T05:22:12.614Z,166.96
2022-10-15T05:23:12.674Z,166.79
2022-10-15T05:24:12.771Z,165.97
2022-10-15T05:25:12.873Z,164.67
2022-10-15T05:26:12.922Z,165.97
2022-10-15T05:27:13.030Z,163.23
2022-10-15T05:28:13.161Z,165.97
2022-10-15T05:29:13.272Z,165.97
2022-10-15T05:30:13.252Z,166.79
2022-10-15T05:31:18.324Z,165.97
2022-10-15T05:32:13.434Z,165.31
2022-10-15T05:33:13.504Z,163.39
2022-10-15T05:34:13.579Z,164.35
2022-10-15T05:35:13.700Z,166.13
2022-10-15T05:36:13.795Z,166.46
2022-10-15T05:37:13.896Z,165.97
2022-10-15T05:38:13.881Z,165.64
2022-10-15T05:39:13.981Z,164.02
2022-10-15T05:40:17.024Z,164.35
2022-10-15T05:41:14.133Z,166.29
2022-10-15T05:42:14.217Z,166.29
2022-10-15T05:43:14.313Z,167.29
2022-10-15T05:44:14.392Z,164.51
2022-10-15T05:45:14.474Z,163.07
2022-10-15T05:46:14.554Z,166.62
2022-10-15T05:47:14.619Z,163.86
2022-10-15T05:48:14.698Z,166.13
2022-10-15T05:49:14.769Z,163.54
2022-10-15T05:50:15.082Z,166.29
2022-10-15T05:51:14.955Z,164.83
2022-10-15T05:52:15.042Z,164.35
2022-10-15T05:53:15.077Z,164.35
2022-10-15T05:54:15.184Z,166.62
2022-10-15T05:55:15.234Z,165.64
2022-10-15T05:56:15.323Z,164.51
2022-10-15T05:57:15.410Z,167.12
2022-10-15T05:58:15.491Z,166.46
2022-10-15T05:59:15.575Z,166.13
2022-10-15T06:00:15.656Z,164.02
2022-10-15T06:01:15.722Z,165.97
2022-10-15T06:02:15.865Z,165.48
2022-10-15T06:03:15.881Z,166.29
2022-10-15T06:04:15.971Z,165.48
2022-10-15T06:05:16.033Z,163.23
2022-10-15T06:06:16.108Z,166.13
2022-10-15T06:07:16.227Z,165.48
2022-10-15T06:08:16.248Z,164.18
2022-10-15T06:09:16.337Z,164.51
2022-10-15T06:10:16.402Z,161.97
2022-10-15T06:11:16.490Z,162.60
2022-10-15T06:12:16.558Z,164.83
2022-10-15T06:13:16.700Z,163.86
2022-10-15T06:14:16.733Z,161.66
2022-10-15T06:15:16.823Z,161.66
2022-10-15T06:16:20.839Z,162.13
2022-10-15T06:17:16.999Z,160.73
2022-10-15T06:18:17.042Z,163.07
2022-10-15T06:19:17.142Z,161.66
2022-10-15T06:20:17.183Z,164.18
2022-10-15T06:21:17.263Z,164.67
2022-10-15T06:22:17.351Z,161.66
2022-10-15T06:23:17.423Z,163.39
2022-10-15T06:24:17.523Z,160.12
2022-10-15T06:25:17.602Z,164.67
2022-10-15T06:26:17.730Z,164.83
2022-10-15T06:27:17.877Z,162.13
2022-10-15T06:28:17.857Z,164.67
2022-10-15T06:29:17.922Z,163.70
2022-10-15T06:30:18.012Z,162.44
2022-10-15T06:31:18.079Z,163.70
2022-10-15T06:32:18.167Z,161.97
2022-10-15T06:33:18.246Z,164.02
2022-10-15T06:34:18.349Z,163.23
2022-10-15T06:35:18.415Z,165.15
2022-10-15T06:36:18.520Z,161.35
2022-10-15T06:37:18.570Z,162.44
2022-10-15T06:38:18.678Z,162.13
2022-10-15T06:39:18.761Z,164.67
2022-10-15T06:40:18.813Z,163.86
2022-10-15T06:41:18.881Z,164.51
2022-10-15T06:42:18.974Z,164.51
2022-10-15T06:43:19.058Z,164.35
2022-10-15T06:44:19.145Z,165.31
2022-10-15T06:45:21.713Z,165.48
2022-10-15T06:46:19.284Z,167.12
2022-10-15T06:47:19.356Z,166.62
2022-10-15T06:48:19.471Z,166.29
2022-10-15T06:49:19.514Z,164.51
2022-10-15T06:50:19.586Z,164.99
2022-10-15T06:51:19.684Z,168.63
2022-10-15T06:52:19.739Z,166.62
2022-10-15T06:53:19.824Z,166.62
2022-10-15T06:54:19.881Z,167.46
2022-10-15T06:55:19.964Z,170.34
2022-10-15T06:56:20.043Z,171.73
2022-10-15T06:57:20.138Z,169.48
2022-10-15T06:58:20.217Z,171.73
2022-10-15T06:59:20.272Z,170.34
2022-10-15T07:00:20.405Z,172.26
2022-10-15T07:01:20.451Z,173.86
2022-10-15T07:02:20.686Z,170.68
2022-10-15T07:03:20.598Z,172.08
2022-10-15T07:04:20.712Z,172.08
2022-10-15T07:05:20.788Z,173.50
2022-10-15T07:06:20.905Z,172.61
2022-10-15T07:07:20.925Z,174.04
2022-10-15T07:08:21.033Z,174.04
2022-10-15T07:09:21.073Z,174.95
2022-10-15T07:11:21.235Z,174.58
2022-10-15T07:12:21.720Z,173.86
2022-10-15T07:13:21.425Z,175.49
2022-10-15T07:14:21.530Z,175.68
2022-10-15T07:15:21.566Z,176.05
2022-10-15T07:16:21.650Z,174.95
2022-10-15T07:17:21.732Z,175.49
2022-10-15T07:18:21.826Z,176.42
2022-10-15T07:19:21.873Z,176.23
2022-10-15T07:20:24.517Z,177.53
2022-10-15T07:21:22.033Z,176.05
2022-10-15T07:22:22.436Z,177.72
2022-10-15T07:23:25.530Z,180.01
2022-10-15T07:24:22.273Z,177.53
2022-10-15T07:25:22.346Z,178.48
2022-10-15T07:26:22.421Z,177.72
2022-10-15T07:27:22.502Z,177.53
2022-10-15T07:28:22.643Z,177.53
2022-10-15T07:29:22.662Z,177.35
2022-10-15T07:30:22.748Z,177.91
2022-10-15T07:31:22.827Z,177.91
2022-10-15T07:32:23.124Z,178.67
2022-10-15T07:33:22.981Z,178.29
2022-10-15T07:34:23.060Z,178.86
2022-10-15T07:35:23.131Z,180.59
2022-10-15T07:36:23.214Z,178.48
2022-10-15T07:37:23.308Z,178.48
2022-10-15T07:38:23.397Z,178.67
2022-10-15T07:39:23.450Z,178.67
2022-10-15T07:40:23.533Z,177.91
2022-10-15T07:41:23.590Z,179.62
2022-10-15T07:42:23.709Z,181.36
2022-10-15T07:43:23.740Z,179.24
2022-10-15T07:44:23.801Z,178.86
2022-10-15T07:45:23.872Z,178.48
2022-10-15T07:46:23.951Z,178.48
2022-10-15T07:47:24.229Z,178.48
2022-10-15T07:48:24.153Z,181.56
2022-10-15T07:49:24.190Z,178.48
2022-10-15T07:50:24.382Z,179.05
2022-10-15T07:51:24.339Z,179.24
2022-10-15T07:52:24.667Z,179.43
2022-10-15T07:53:24.498Z,179.24
2022-10-15T07:54:24.585Z,179.24
2022-10-15T07:55:24.675Z,179.43
2022-10-15T07:56:24.725Z,180.01
2022-10-15T07:57:24.823Z,181.76
2022-10-15T07:58:24.898Z,179.05
2022-10-15T07:59:24.946Z,180.97
2022-10-15T08:00:25.107Z,179.05
2022-10-15T08:01:25.115Z,179.62
2022-10-15T08:02:25.673Z,178.67
2022-10-15T08:03:25.331Z,179.24
2022-10-15T08:04:25.467Z,179.24
2022-10-15T08:05:25.459Z,178.67
2022-10-15T08:06:25.555Z,179.24
2022-10-15T08:07:25.663Z,182.15
2022-10-15T08:08:25.738Z,178.86
2022-10-15T08:09:25.812Z,178.48
2022-10-15T08:10:25.888Z,178.67
2022-10-15T08:11:25.961Z,179.43
2022-10-15T08:12:26.361Z,178.29
2022-10-15T08:13:26.122Z,178.48
2022-10-15T08:14:26.199Z,179.81
2022-10-15T08:15:26.266Z,179.05
2022-10-15T08:16:26.353Z,180.97
2022-10-15T08:17:26.440Z,178.67
2022-10-15T08:18:26.524Z,178.48
2022-10-15T08:19:26.606Z,177.72
2022-10-15T08:20:26.692Z,179.43
2022-10-15T08:21:26.773Z,177.53
2022-10-15T08:22:26.960Z,176.79
2022-10-15T08:23:26.935Z,176.97
2022-10-15T08:24:26.997Z,177.35
2022-10-15T08:25:27.071Z,177.91
2022-10-15T08:26:27.182Z,176.42
2022-10-15T08:27:27.257Z,179.24
2022-10-15T08:28:27.385Z,177.53
2022-10-15T08:29:27.428Z,179.24
2022-10-15T08:30:27.512Z,175.31
2022-10-15T08:31:27.573Z,178.10
2022-10-15T08:32:27.645Z,176.79
2022-10-15T08:33:27.740Z,176.23
2022-10-15T08:34:27.823Z,176.23
2022-10-15T08:35:27.902Z,178.48
2022-10-15T08:36:27.981Z,175.49
2022-10-15T08:37:28.068Z,174.77
2022-10-15T08:38:28.161Z,175.68
2022-10-15T08:39:28.258Z,175.13
2022-10-15T08:40:28.335Z,177.53
2022-10-15T08:41:28.449Z,177.35
2022-10-15T08:42:28.488Z,174.95
2022-10-15T08:43:28.594Z,177.72
2022-10-15T08:44:28.676Z,176.97
2022-10-15T08:45:28.739Z,174.40
2022-10-15T08:46:29.010Z,175.68
2022-10-15T08:47:29.029Z,174.77
2022-10-15T08:48:28.979Z,176.42
2022-10-15T08:49:29.066Z,174.77
2022-10-15T08:50:29.157Z,174.22
2022-10-15T08:51:29.225Z,176.42
2022-10-15T08:52:29.291Z,173.50
2022-10-15T08:53:29.373Z,172.97
2022-10-15T08:54:29.449Z,176.60
2022-10-15T08:55:29.524Z,174.58
2022-10-15T08:56:29.566Z,173.32
2022-10-15T08:57:29.736Z,176.42
2022-10-15T08:58:29.745Z,172.26
2022-10-15T08:59:29.856Z,175.49
2022-10-15T09:00:29.903Z,174.04
2022-10-15T09:01:30.003Z,174.77
2022-10-15T09:02:30.074Z,170.51
2022-10-15T09:03:30.190Z,175.86
2022-10-15T09:04:30.248Z,173.68
2022-10-15T09:05:30.334Z,171.38
2022-10-15T09:06:30.417Z,171.38
2022-10-15T09:07:30.515Z,174.22
2022-10-15T09:08:30.600Z,172.97
2022-10-15T09:09:30.705Z,172.43
2022-10-15T09:10:30.741Z,170.68
2022-10-15T09:11:30.826Z,174.04
2022-10-15T09:12:30.908Z,173.50
2022-10-15T09:13:31.014Z,173.15
2022-10-15T09:14:31.066Z,172.97
2022-10-15T09:15:31.154Z,170.86
2022-10-15T09:16:31.236Z,173.15
2022-10-15T09:17:31.338Z,169.99
2022-10-15T09:18:31.386Z,172.61
2022-10-15T09:19:31.452Z,169.82
2022-10-15T09:20:31.542Z,169.82
2022-10-15T09:21:31.620Z,169.82
2022-10-15T09:22:31.690Z,172.26
2022-10-15T09:23:31.765Z,170.34
2022-10-15T09:24:31.832Z,168.46
2022-10-15T09:25:32.137Z,172.43
2022-10-15T09:26:31.992Z,170.86
2022-10-15T09:27:32.166Z,169.48
2022-10-15T09:28:32.209Z,169.31
2022-10-15T09:29:32.220Z,170.17
2022-10-15T09:30:32.294Z,168.80
2022-10-15T09:31:32.393Z,169.82
2022-10-15T09:32:32.580Z,170.51
2022-10-15T09:33:32.553Z,171.91
2022-10-15T09:34:32.652Z,168.80
2022-10-15T09:35:32.702Z,169.31
2022-10-15T09:36:32.779Z,169.65
2022-10-15T09:37:32.875Z,172.26
2022-10-15T09:38:32.922Z,170.17
2022-10-15T09:39:32.996Z,168.29
2022-10-15T09:40:33.122Z,168.29
2022-10-15T09:41:33.187Z,171.38
2022-10-15T09:42:33.291Z,171.56
2022-10-15T09:43:33.407Z,169.31
2022-10-15T09:44:33.447Z,167.96
2022-10-15T09:45:33.543Z,170.34
2022-10-15T09:46:33.588Z,170.34
2022-10-15T09:47:33.684Z,169.14
2022-10-15T09:48:33.731Z,169.65
2022-10-15T09:49:36.405Z,172.79
2022-10-15T09:50:33.900Z,169.31
2022-10-15T09:51:34.000Z,171.91
2022-10-15T09:52:34.079Z,172.08
2022-10-15T09:53:34.158Z,172.26
2022-10-15T09:54:34.239Z,168.97
2022-10-15T09:55:34.336Z,171.56
2022-10-15T09:56:34.415Z,169.14
2022-10-15T09:57:34.465Z,171.38
2022-10-15T09:58:34.558Z,168.97
2022-10-15T09:59:34.665Z,172.61
2022-10-15T10:00:34.689Z,169.48
2022-10-15T10:01:34.783Z,168.97
2022-10-15T10:02:34.849Z,169.48
2022-10-15T10:03:34.912Z,169.99
2022-10-15T10:04:35.009Z,171.91
2022-10-15T10:05:35.073Z,168.97
2022-10-15T10:06:35.180Z,171.03
2022-10-15T10:07:35.243Z,171.03
2022-10-15T10:08:35.385Z,168.46
2022-10-15T10:09:35.386Z,172.08
2022-10-15T10:10:35.470Z,171.56
2022-10-15T10:11:35.609Z,169.82
2022-10-15T10:12:35.673Z,171.91
2022-10-15T10:13:35.742Z,171.03
2022-10-15T10:14:35.797Z,170.68
2022-10-15T10:15:35.986Z,171.21
2022-10-15T10:16:35.946Z,168.80
2022-10-15T10:17:36.024Z,168.63
2022-10-15T10:18:36.126Z,168.29
2022-10-15T10:19:36.225Z,167.96
2022-10-15T10:20:36.312Z,169.82
2022-10-15T10:21:36.379Z,171.56
2022-10-15T10:22:36.478Z,172.26
2022-10-15T10:23:36.536Z,168.29
2022-10-15T10:24:36.650Z,169.48
2022-10-15T10:25:36.699Z,169.31
2022-10-15T10:26:36.796Z,167.96
2022-10-15T10:27:37.211Z,169.82
2022-10-15T10:28:40.477Z,171.21
2022-10-15T10:29:37.181Z,171.21
2022-10-15T10:30:37.080Z,171.56
2022-10-15T10:31:37.153Z,167.96
2022-10-15T10:32:37.247Z,170.68
2022-10-15T10:33:37.310Z,171.03
2022-10-15T10:34:37.381Z,171.73
2022-10-15T10:35:37.472Z,167.96
2022-10-15T10:36:40.664Z,170.34
2022-10-15T10:37:37.659Z,168.63
2022-10-15T10:38:37.699Z,169.82
2022-10-15T10:39:37.836Z,170.51
2022-10-15T10:40:37.851Z,171.38
2022-10-15T10:41:37.960Z,168.29
2022-10-15T10:42:38.031Z,170.86
2022-10-15T10:43:39.326Z,168.46
2022-10-15T10:44:38.182Z,169.14
2022-10-15T10:45:38.266Z,170.68
2022-10-15T10:46:38.370Z,171.03
2022-10-15T10:47:38.415Z,169.82
2022-10-15T10:48:38.486Z,170.34
2022-10-15T10:49:38.585Z,170.68
2022-10-15T10:50:38.682Z,168.12
2022-10-15T10:51:38.739Z,170.68
2022-10-15T10:52:38.822Z,167.29
2022-10-15T10:53:38.949Z,169.48
2022-10-15T10:54:39.057Z,170.34
2022-10-15T10:55:39.060Z,167.29
2022-10-15T10:56:39.162Z,170.68
2022-10-15T10:57:39.220Z,168.12
2022-10-15T10:58:39.274Z,171.38
2022-10-15T10:59:39.377Z,168.12
2022-10-15T11:00:39.461Z,169.31
2022-10-15T11:01:39.529Z,170.34
2022-10-15T11:02:39.584Z,168.63
2022-10-15T11:03:39.717Z,171.91
2022-10-15T11:04:39.758Z,168.12
2022-10-15T11:05:39.832Z,168.97
2022-10-15T11:06:39.933Z,168.29
2022-10-15T11:07:40.025Z,169.82
2022-10-15T11:08:40.098Z,171.73
2022-10-15T11:09:40.178Z,170.86
2022-10-15T11:10:40.252Z,172.08
2022-10-15T11:11:40.359Z,170.51
2022-10-15T11:12:40.391Z,171.03
2022-10-15T11:13:40.472Z,171.56
2022-10-15T11:14:40.543Z,168.46
2022-10-15T11:15:40.670Z,169.31
2022-10-15T11:16:40.802Z,172.43
2022-10-15T11:17:40.774Z,171.91
2022-10-15T11:18:40.834Z,169.65
2022-10-15T11:20:59.803Z,168.46
2022-10-15T11:21:41.093Z,168.29
2022-10-15T11:22:41.144Z,169.99
2022-10-15T11:23:41.220Z,170.86
2022-10-15T11:24:48.464Z,170.34
2022-10-15T11:25:41.383Z,172.43
2022-10-15T11:26:58.783Z,171.38
2022-10-15T11:27:41.592Z,171.91
2022-10-15T11:28:41.679Z,168.97
2022-10-15T11:29:41.740Z,170.51
2022-10-15T11:30:41.891Z,171.21
2022-10-15T11:31:54.988Z,170.34
2022-10-15T11:33:02.268Z,171.56
2022-10-15T11:33:42.057Z,171.03
2022-10-15T11:34:42.111Z,167.79
2022-10-15T11:35:52.826Z,170.34
2022-10-15T11:36:42.306Z,169.99
2022-10-15T11:37:42.379Z,170.17
2022-10-15T11:38:42.450Z,170.86
2022-10-15T11:39:42.530Z,170.17
2022-10-15T11:40:42.639Z,170.51
2022-10-15T11:41:42.716Z,167.96
2022-10-15T11:42:42.779Z,168.12
2022-10-15T11:43:42.861Z,170.68
2022-10-15T11:44:42.972Z,169.99
2022-10-15T11:45:43.020Z,169.99
2022-10-15T11:46:46.488Z,167.96
2022-10-15T11:47:43.197Z,170.17
2022-10-15T11:48:43.278Z,169.65
2022-10-15T11:49:43.326Z,170.68
2022-10-15T11:50:43.422Z,170.17
2022-10-15T11:51:43.503Z,169.31
2022-10-15T11:52:43.582Z,168.80
2022-10-15T11:53:43.674Z,169.48
2022-10-15T11:54:43.749Z,167.12
2022-10-15T11:55:43.842Z,170.51
2022-10-15T11:56:43.917Z,169.31
2022-10-15T11:57:43.991Z,169.65
2022-10-15T11:58:44.095Z,169.31
2022-10-15T11:59:44.164Z,168.97
2022-10-15T12:00:44.289Z,168.46
2022-10-15T12:01:44.326Z,169.82
2022-10-15T12:02:44.428Z,168.29
2022-10-15T12:03:44.544Z,169.65
2022-10-15T12:04:44.600Z,168.29
2022-10-15T12:05:44.680Z,169.31
2022-10-15T12:06:44.751Z,169.31
2022-10-15T12:07:44.805Z,168.80
2022-10-15T12:08:44.880Z,167.96
2022-10-15T12:09:44.990Z,167.12
2022-10-15T12:10:45.063Z,168.80
2022-10-15T12:11:45.137Z,168.97
2022-10-15T12:12:45.216Z,168.12
2022-10-15T12:13:45.300Z,169.31
2022-10-15T12:14:45.393Z,168.12
2022-10-15T12:15:45.504Z,167.79
2022-10-15T12:16:45.551Z,166.62
2022-10-15T12:17:45.625Z,169.82
2022-10-15T12:18:45.725Z,169.65
2022-10-15T12:19:45.792Z,169.48
2022-10-15T12:20:45.904Z,168.97
2022-10-15T12:21:45.948Z,168.80
2022-10-15T12:22:46.026Z,169.14
2022-10-15T12:23:46.100Z,168.97
2022-10-15T12:24:46.198Z,168.46
2022-10-15T12:25:46.296Z,168.63
2022-10-15T12:26:46.352Z,167.96
2022-10-15T12:27:46.596Z,169.14
2022-10-15T12:28:46.570Z,168.97
2022-10-15T12:29:46.626Z,167.29
2022-10-15T12:30:46.692Z,168.12
2022-10-15T12:31:46.785Z,168.46
2022-10-15T12:32:46.856Z,167.12